Time;durP1;ratioP1;P1;durP2;ratioP2;P2;SDS_P1;SDS_P2;PMS_P1;PMS_P2;Temp;Humidity;BMP_temperature;BMP_pressure;BME280_temperature;BME280_humidity;BME280_pressure;Samples;Min_cycle;Max_cycle;Signal;HPM_P1;HPM_P2
2023/03/29 00:00:18;;;;;;;4.55;4.15;;;;;;;6.88;65.30;101231.22;680054;29;1209;-81
2023/03/29 00:00:38;;;;;;;5.20;4.50;;;;;;;6.80;65.06;101223.94;682761;29;1139;-82
2023/03/29 00:00:59;;;;;;;5.43;4.70;;;;;;;6.78;65.62;101217.81;682896;28;1302;-82
2023/03/29 00:01:20;;;;;;;6.00;4.82;;;;;;;6.77;65.39;101217.72;680160;29;1053;-82
2023/03/29 00:01:41;;;;;;;5.40;4.70;;;;;;;6.80;65.30;101223.94;682815;29;1124;-82
2023/03/29 00:02:01;;;;;;;4.68;4.28;;;;;;;6.81;65.31;101232.63;680203;29;1215;-82
2023/03/29 00:02:32;;;;;;;4.10;3.80;;;;;;;6.82;65.49;101231.81;682937;29;1026;-82
2023/03/29 00:02:55;;;;;;;4.30;3.90;;;;;;;6.85;65.40;101238.06;682778;29;1125;-82
2023/03/29 00:03:16;;;;;;;4.53;4.10;;;;;;;6.88;65.41;101231.22;682763;29;1089;-82
2023/03/29 00:03:38;;;;;;;5.43;4.40;;;;;;;6.81;65.16;101227.44;682786;29;1092;-82
2023/03/29 00:04:00;;;;;;;5.22;4.22;;;;;;;6.75;65.34;101220.22;684960;28;1249;-82
2023/03/29 00:04:20;;;;;;;5.50;4.40;;;;;;;6.81;64.89;101220.53;680054;29;1375;-82
2023/03/29 00:04:41;;;;;;;4.80;4.30;;;;;;;6.75;65.54;101220.22;679571;29;2007;-82
2023/03/29 00:05:03;;;;;;;4.85;4.35;;;;;;;6.74;65.54;101218.44;680138;29;1135;-82
2023/03/29 00:05:24;;;;;;;4.88;4.38;;;;;;;6.74;65.12;101212.38;685464;28;1133;-82
2023/03/29 00:05:45;;;;;;;4.90;4.40;;;;;;;6.76;65.51;101216.81;688079;28;1080;-82
2023/03/29 00:06:06;;;;;;;4.87;4.37;;;;;;;6.77;65.38;101213.44;685468;28;1235;-82
2023/03/29 00:06:31;;;;;;;4.60;4.20;;;;;;;6.84;65.88;101222.41;685402;28;1289;-82
2023/03/29 00:06:53;;;;;;;4.50;4.10;;;;;;;6.80;65.72;101218.75;682487;28;1072;-82
2023/03/29 00:07:14;;;;;;;4.60;4.20;;;;;;;6.77;65.55;101213.44;685503;28;1079;-82
2023/03/29 00:07:45;;;;;;;4.50;4.20;;;;;;;6.85;65.11;101225.09;685463;28;1190;-82
2023/03/29 00:08:07;;;;;;;5.40;4.13;;;;;;;6.80;65.54;101213.56;685532;28;1012;-83
2023/03/29 00:08:33;;;;;;;6.25;4.45;;;;;;;6.78;65.26;101220.41;685480;28;1427;-82
2023/03/29 00:08:53;;;;;;;5.15;4.40;;;;;;;6.76;65.35;101210.75;685253;28;968;-82
2023/03/29 00:09:14;;;;;;;5.10;4.20;;;;;;;6.82;65.54;101222.31;685439;28;1125;-82
2023/03/29 00:09:35;;;;;;;4.80;4.30;;;;;;;6.81;65.09;101214.47;682822;29;1184;-82
2023/03/29 00:09:56;;;;;;;4.97;4.47;;;;;;;6.87;65.73;101226.88;682787;29;1333;-82
2023/03/29 00:10:17;;;;;;;4.80;4.35;;;;;;;6.79;65.24;101205.69;682695;29;1224;-82
2023/03/29 00:10:38;;;;;;;4.65;4.18;;;;;;;6.81;65.79;101217.94;688106;28;1132;-82
2023/03/29 00:11:00;;;;;;;4.50;4.10;;;;;;;6.75;65.32;101203.78;688112;28;1252;-82
2023/03/29 00:11:21;;;;;;;4.68;4.28;;;;;;;6.71;65.39;101197.53;685510;28;1158;-82
2023/03/29 00:11:41;;;;;;;5.03;4.53;;;;;;;6.82;65.42;101217.13;680030;29;1132;-82
2023/03/29 00:12:02;;;;;;;5.13;4.63;;;;;;;6.78;65.88;101201.34;682871;29;1413;-82
2023/03/29 00:12:23;;;;;;;4.88;4.38;;;;;;;6.83;65.64;101210.25;682865;29;1117;-82
2023/03/29 00:12:43;;;;;;;4.90;4.40;;;;;;;6.83;65.75;101208.53;685431;28;1018;-82
2023/03/29 00:13:04;;;;;;;5.00;4.50;;;;;;;6.75;65.36;101202.06;682610;28;1001;-82
2023/03/29 00:13:26;;;;;;;5.05;4.55;;;;;;;6.80;65.60;101198.00;685521;28;1120;-82
2023/03/29 00:13:49;;;;;;;5.15;4.60;;;;;;;6.79;65.70;101209.19;685310;28;1280;-82
2023/03/29 00:14:10;;;;;;;6.00;4.78;;;;;;;6.75;65.03;101190.81;682795;28;1381;-82
2023/03/29 00:14:30;;;;;;;5.70;4.70;;;;;;;6.77;65.57;101192.69;680235;29;1178;-82
2023/03/29 00:14:51;;;;;;;5.30;4.80;;;;;;;6.78;65.36;101194.44;682669;29;1015;-82
2023/03/29 00:15:12;;;;;;;4.90;4.50;;;;;;;6.80;65.62;101198.00;680065;29;1171;-82
2023/03/29 00:15:32;;;;;;;5.00;4.57;;;;;;;6.79;65.81;101195.31;685509;28;1040;-82
2023/03/29 00:15:54;;;;;;;4.70;4.30;;;;;;;6.76;65.16;101190.88;688485;28;1112;-82
2023/03/29 00:16:14;;;;;;;4.68;4.28;;;;;;;6.78;65.44;101189.25;690422;28;1133;-82
2023/03/29 00:16:35;;;;;;;4.55;4.15;;;;;;;6.76;65.34;101182.22;688126;28;1093;-82
2023/03/29 00:16:56;;;;;;;4.60;4.20;;;;;;;6.85;65.56;101199.13;687874;28;1088;-82
2023/03/29 00:17:17;;;;;;;4.70;4.30;;;;;;;6.85;65.56;101206.00;687970;28;1172;-82
2023/03/29 00:17:38;;;;;;;4.60;4.20;;;;;;;6.86;65.48;101205.19;685360;28;1125;-82
2023/03/29 00:17:58;;;;;;;4.57;4.20;;;;;;;6.78;65.63;101191.84;682947;29;1019;-82
2023/03/29 00:18:20;;;;;;;4.70;4.30;;;;;;;6.76;65.61;101184.81;688016;28;1188;-82
2023/03/29 00:18:40;;;;;;;4.90;4.50;;;;;;;6.76;65.37;101180.50;685902;28;1206;-82
2023/03/29 00:19:01;;;;;;;5.10;4.60;;;;;;;6.81;65.92;101193.72;688620;28;948;-82
2023/03/29 00:19:22;;;;;;;4.90;4.40;;;;;;;6.76;65.40;101190.88;685973;28;1318;-82
2023/03/29 00:19:44;;;;;;;4.40;4.00;;;;;;;6.72;65.51;101168.19;683197;28;989;-82
2023/03/29 00:20:09;;;;;;;4.47;4.07;;;;;;;6.74;65.24;101187.31;685976;28;1110;-82
2023/03/29 00:20:29;;;;;;;4.80;4.30;;;;;;;6.78;65.26;101188.34;686010;28;965;-82
2023/03/29 00:20:57;;;;;;;4.68;4.28;;;;;;;6.78;65.70;101194.44;688616;28;1207;-82
2023/03/29 00:21:17;;;;;;;4.20;3.80;;;;;;;6.79;65.56;101190.13;688574;28;992;-82
2023/03/29 00:21:38;;;;;;;4.53;4.13;;;;;;;6.79;65.11;101184.94;691348;28;1121;-83
2023/03/29 00:21:59;;;;;;;4.70;4.30;;;;;;;6.76;65.25;101187.41;685982;28;1070;-82
2023/03/29 00:22:20;;;;;;;5.10;4.60;;;;;;;6.84;65.44;101193.88;683292;29;1260;-82
2023/03/29 00:22:42;;;;;;;4.80;4.30;;;;;;;6.82;65.53;101193.78;683202;29;1723;-82
2023/03/29 00:23:02;;;;;;;4.70;4.20;;;;;;;6.78;65.29;101183.16;680649;29;1370;-82
2023/03/29 00:23:24;;;;;;;4.72;4.00;;;;;;;6.84;65.14;101196.47;683300;29;1181;-82
2023/03/29 00:23:44;;;;;;;4.57;4.00;;;;;;;6.73;65.68;101169.09;685851;28;1385;-82
2023/03/29 00:24:05;;;;;;;4.78;4.00;;;;;;;6.75;65.16;101183.91;683437;29;1168;-82
2023/03/29 00:24:25;;;;;;;4.60;4.20;;;;;;;6.75;65.63;101173.53;688780;28;1214;-82
2023/03/29 00:24:47;;;;;;;4.83;4.40;;;;;;;6.82;65.50;101195.50;683080;28;1910;-82
2023/03/29 00:25:10;;;;;;;4.70;4.30;;;;;;;6.80;65.29;101182.44;680741;29;1181;-81
2023/03/29 00:25:31;;;;;;;4.55;4.15;;;;;;;6.70;65.21;101167.22;683273;28;1257;-82
2023/03/29 00:25:52;;;;;;;4.30;3.90;;;;;;;6.77;65.32;101181.41;683195;28;1218;-82
2023/03/29 00:26:13;;;;;;;4.50;4.10;;;;;;;6.73;65.50;101177.75;680647;29;995;-82
2023/03/29 00:26:34;;;;;;;5.28;4.40;;;;;;;6.72;65.29;101178.56;683308;29;1064;-82
2023/03/29 00:26:54;;;;;;;5.15;4.50;;;;;;;6.75;65.27;101178.72;683037;29;1118;-81
2023/03/29 00:27:15;;;;;;;4.97;4.40;;;;;;;6.72;65.58;101173.38;680622;29;1168;-82
2023/03/29 00:27:36;;;;;;;5.00;4.50;;;;;;;6.77;65.50;101181.41;680602;29;1276;-82
2023/03/29 00:27:56;;;;;;;5.00;4.50;;;;;;;6.71;65.39;101162.09;680616;29;1167;-82
2023/03/29 00:28:17;;;;;;;5.28;4.78;;;;;;;6.71;65.05;101163.81;680758;29;1077;-82
2023/03/29 00:28:38;;;;;;;5.68;4.70;;;;;;;6.72;65.40;101163.00;683227;29;1186;-82
2023/03/29 00:28:59;;;;;;;5.80;4.68;;;;;;;6.78;65.24;101168.50;683443;29;806;-82
2023/03/29 00:29:19;;;;;;;5.43;4.50;;;;;;;6.73;65.66;101162.19;685990;28;1085;-82
2023/03/29 00:29:40;;;;;;;4.50;4.10;;;;;;;6.69;65.02;101162.84;685934;28;1140;-82
2023/03/29 00:30:04;;;;;;;4.50;4.10;;;;;;;6.77;65.29;101165.84;686042;28;826;-82
2023/03/29 00:30:25;;;;;;;4.93;4.43;;;;;;;6.68;65.22;101148.97;689417;28;1491;-82
2023/03/29 00:30:46;;;;;;;5.40;4.78;;;;;;;6.75;65.63;101167.47;685850;28;1301;-81
2023/03/29 00:31:15;;;;;;;5.40;4.85;;;;;;;6.70;65.64;101155.09;680672;28;1072;-82
2023/03/29 00:31:36;;;;;;;5.40;4.80;;;;;;;6.67;65.41;101157.56;685930;28;2174;-82
2023/03/29 00:31:57;;;;;;;5.10;4.60;;;;;;;6.77;65.45;101166.75;685996;28;808;-82
2023/03/29 00:32:18;;;;;;;5.13;4.35;;;;;;;6.77;65.22;101166.75;683320;29;959;-82
2023/03/29 00:32:39;;;;;;;4.40;4.00;;;;;;;6.67;65.44;101154.97;680522;29;1208;-82
2023/03/29 00:33:00;;;;;;;4.30;3.90;;;;;;;6.69;65.44;101157.66;683407;29;1010;-82
2023/03/29 00:33:21;;;;;;;4.30;3.90;;;;;;;6.78;65.31;101173.69;683234;29;1026;-82
2023/03/29 00:33:43;;;;;;;4.50;4.10;;;;;;;6.74;65.48;101163.09;685895;28;1116;-82
2023/03/29 00:34:03;;;;;;;4.50;4.10;;;;;;;6.69;65.09;101155.94;685939;28;1248;-82
2023/03/29 00:34:29;;;;;;;4.60;4.20;;;;;;;6.75;65.13;101157.09;688582;28;1276;-82
2023/03/29 00:34:50;;;;;;;4.50;4.10;;;;;;;6.73;65.49;101161.31;685804;28;1110;-82
2023/03/29 00:35:10;;;;;;;4.57;4.10;;;;;;;6.71;65.40;101156.03;683238;29;1203;-82
2023/03/29 00:35:31;;;;;;;4.50;4.10;;;;;;;6.72;65.08;101157.81;683434;29;768;-82
2023/03/29 00:35:53;;;;;;;4.80;4.28;;;;;;;6.71;65.23;101156.03;685931;28;1072;-82
2023/03/29 00:36:14;;;;;;;5.10;4.35;;;;;;;6.77;65.46;101166.75;685950;28;1134;-82
2023/03/29 00:36:35;;;;;;;5.22;4.30;;;;;;;6.72;65.63;101160.41;683315;28;1162;-82
2023/03/29 00:36:57;;;;;;;4.50;4.10;;;;;;;6.69;65.34;101152.47;680414;29;1220;-82
2023/03/29 00:37:18;;;;;;;5.55;4.60;;;;;;;6.69;65.33;101147.28;683171;29;1309;-82
2023/03/29 00:37:40;;;;;;;5.65;4.57;;;;;;;6.76;65.16;101153.69;680602;29;1008;-82
2023/03/29 00:38:00;;;;;;;5.80;4.82;;;;;;;6.69;65.22;101149.88;680648;29;950;-82
2023/03/29 00:38:21;;;;;;;5.03;4.47;;;;;;;6.69;65.14;101149.88;683211;29;1479;-81
2023/03/29 00:38:41;;;;;;;5.13;4.60;;;;;;;6.75;64.97;101157.97;688545;28;998;-82
2023/03/29 00:39:03;;;;;;;5.73;4.63;;;;;;;6.69;65.45;101148.16;688656;28;1154;-82
2023/03/29 00:39:25;;;;;;;5.93;4.70;;;;;;;6.76;65.29;101162.34;688620;28;1022;-82
2023/03/29 00:39:45;;;;;;;5.43;4.70;;;;;;;6.74;65.42;101161.38;688500;28;1070;-82
2023/03/29 00:40:10;;;;;;;5.35;4.50;;;;;;;6.65;65.20;101145.31;688673;28;1001;-82
2023/03/29 00:40:32;;;;;;;5.50;4.60;;;;;;;6.67;65.17;101156.66;684325;28;1130;-82
2023/03/29 00:40:52;;;;;;;5.65;4.60;;;;;;;6.73;65.49;101158.72;685830;28;1161;-82
2023/03/29 00:41:13;;;;;;;5.22;4.72;;;;;;;6.68;65.29;101161.94;685951;28;1032;-82
2023/03/29 00:41:34;;;;;;;5.30;4.80;;;;;;;6.72;65.85;101163.00;685928;28;1215;-82
2023/03/29 00:41:55;;;;;;;5.20;4.70;;;;;;;6.71;65.61;101162.09;683118;28;1074;-82
2023/03/29 00:42:19;;;;;;;5.10;4.60;;;;;;;6.63;65.22;101149.56;683286;28;1056;-82
2023/03/29 00:42:44;;;;;;;4.85;4.35;;;;;;;6.65;65.64;101155.69;685652;28;1324;-82
2023/03/29 00:43:09;;;;;;;6.03;4.28;;;;;;;6.62;65.35;101150.38;683287;29;1068;-82
2023/03/29 00:43:29;;;;;;;6.22;4.10;;;;;;;6.58;65.46;101142.41;683240;29;1077;-82
2023/03/29 00:43:51;;;;;;;5.33;3.83;;;;;;;6.66;65.51;101150.59;683121;29;1157;-82
2023/03/29 00:44:49;;;;;;;5.28;4.35;;;;;;;6.72;65.25;101168.19;683251;29;1097;-82
2023/03/29 00:45:29;;;;;;;4.85;4.32;;;;;;;6.72;65.32;101168.19;680598;29;1273;-82
2023/03/29 00:45:50;;;;;;;5.40;4.38;;;;;;;6.62;65.63;101153.84;687895;28;1096;-82
2023/03/29 00:46:10;;;;;;;6.25;4.40;;;;;;;6.67;65.61;101154.06;686005;28;1237;-83
2023/03/29 00:46:33;;;;;;;6.20;4.50;;;;;;;6.63;65.04;101149.56;683167;29;1076;-82
2023/03/29 00:46:54;;;;;;;5.30;4.47;;;;;;;6.65;65.81;101160.88;682988;29;1159;-82
2023/03/29 00:47:17;;;;;;;5.03;4.53;;;;;;;6.67;65.71;101154.97;683233;29;1043;-82
2023/03/29 00:47:45;;;;;;;4.72;4.32;;;;;;;6.71;65.53;101161.22;680572;29;1156;-82
2023/03/29 00:48:16;;;;;;;4.47;4.07;;;;;;;6.76;65.50;101169.25;685983;28;919;-82
2023/03/29 00:48:38;;;;;;;4.80;4.30;;;;;;;6.74;65.45;101161.38;688401;28;1741;-82
2023/03/29 00:49:07;;;;;;;6.38;4.65;;;;;;;6.72;65.16;101157.81;688628;28;1445;-83
2023/03/29 00:49:28;;;;;;;6.10;4.53;;;;;;;6.68;65.23;101156.75;685869;28;1243;-82
2023/03/29 00:49:51;;;;;;;5.27;4.37;;;;;;;6.68;65.25;101158.44;683207;28;1105;-82
2023/03/29 00:50:21;;;;;;;5.03;4.53;;;;;;;6.64;64.84;101151.31;682802;29;1143;-82
2023/03/29 00:51:02;;;;;;;5.30;4.80;;;;;;;6.65;65.10;101158.28;683006;28;1028;-82
2023/03/29 00:51:26;;;;;;;4.80;4.30;;;;;;;6.62;65.12;101142.59;685820;28;1125;-81
2023/03/29 00:51:47;;;;;;;5.30;4.40;;;;;;;6.63;65.04;101139.19;685862;28;1088;-82
2023/03/29 00:52:08;;;;;;;5.50;4.60;;;;;;;6.67;65.27;101152.38;688563;28;978;-82
2023/03/29 00:52:31;;;;;;;5.20;4.70;;;;;;;6.69;65.01;101153.34;680664;29;1221;-82
2023/03/29 00:53:02;;;;;;;4.90;4.40;;;;;;;6.67;65.15;101154.97;683090;29;1165;-83
2023/03/29 00:53:28;;;;;;;4.90;4.10;;;;;;;6.64;65.24;101159.09;680541;29;1295;-82
2023/03/29 00:53:54;;;;;;;4.43;3.95;;;;;;;6.62;65.04;101161.63;685676;28;1119;-82
2023/03/29 00:54:18;;;;;;;4.80;4.30;;;;;;;6.54;65.17;101150.88;683131;29;1057;-82
2023/03/29 00:54:43;;;;;;;4.80;4.30;;;;;;;6.49;65.03;101144.56;685867;28;1062;-83
2023/03/29 00:55:10;;;;;;;4.90;4.40;;;;;;;6.48;65.34;101153.16;685853;28;1117;-82
2023/03/29 00:55:35;;;;;;;4.93;4.30;;;;;;;6.46;65.43;101149.59;686002;28;1076;-82
2023/03/29 00:56:01;;;;;;;5.40;4.38;;;;;;;6.47;65.12;101156.56;685777;28;1361;-82
2023/03/29 00:56:25;;;;;;;5.30;4.60;;;;;;;6.46;65.59;101154.78;686049;28;1026;-81
2023/03/29 00:56:49;;;;;;;5.57;4.70;;;;;;;6.37;65.53;101143.91;685420;28;1023;-82
2023/03/29 00:57:12;;;;;;;5.10;4.50;;;;;;;6.34;65.85;101154.13;685926;28;1130;-82
2023/03/29 00:57:33;;;;;;;5.13;4.50;;;;;;;6.27;65.47;101147.75;685800;28;2087;-82
2023/03/29 00:57:55;;;;;;;5.15;4.55;;;;;;;6.34;66.07;101154.13;685894;28;1089;-82
2023/03/29 00:58:22;;;;;;;5.32;4.60;;;;;;;6.22;65.72;101134.56;685922;28;1145;-82
2023/03/29 00:58:58;;;;;;;4.88;4.38;;;;;;;6.29;65.81;101157.41;683136;29;1069;-82
2023/03/29 00:59:27;;;;;;;4.97;4.47;;;;;;;6.16;66.38;101142.88;683820;28;1154;-82
2023/03/29 00:59:49;;;;;;;5.03;4.53;;;;;;;6.22;66.55;101139.75;687465;28;1092;-82
2023/03/29 01:00:12;;;;;;;5.13;4.63;;;;;;;6.16;66.12;101148.06;685904;28;1374;-82
2023/03/29 01:00:39;;;;;;;5.70;4.65;;;;;;;6.25;66.30;101159.72;684542;28;1221;-82
2023/03/29 01:01:07;;;;;;;5.38;4.60;;;;;;;6.20;66.01;101141.34;685920;28;1153;-82
2023/03/29 01:01:37;;;;;;;5.25;4.68;;;;;;;6.18;66.25;101149.88;685893;28;1100;-82
2023/03/29 01:02:05;;;;;;;5.72;4.80;;;;;;;6.14;65.84;101141.06;688559;28;1508;-82
2023/03/29 01:02:28;;;;;;;5.60;4.60;;;;;;;6.13;66.18;101134.06;685859;28;1091;-82
2023/03/29 01:02:58;;;;;;;4.95;4.45;;;;;;;6.14;66.17;101141.06;685824;28;1086;-82
2023/03/29 01:03:40;;;;;;;5.13;4.63;;;;;;;6.09;65.88;101137.31;685884;28;1230;-82
2023/03/29 01:04:07;;;;;;;5.30;4.47;;;;;;;6.12;66.32;101143.56;685844;28;1113;-83
2023/03/29 01:04:30;;;;;;;4.60;4.15;;;;;;;6.07;66.51;101133.75;685904;28;1042;-82
2023/03/29 01:05:08;;;;;;;4.60;4.20;;;;;;;6.07;66.00;101133.75;680313;29;1980;-82
2023/03/29 01:05:36;;;;;;;5.45;4.95;;;;;;;6.11;66.48;101141.78;680552;29;1116;-82
2023/03/29 01:06:05;;;;;;;5.56;4.52;;;;;;;6.08;66.14;101133.81;680501;29;1148;-83
2023/03/29 01:06:30;;;;;;;5.43;4.40;;;;;;;6.11;66.31;101141.78;680560;29;1113;-82
2023/03/29 01:07:05;;;;;;;5.07;4.60;;;;;;;6.03;66.58;101131.00;677695;29;1205;-82
2023/03/29 01:07:38;;;;;;;5.40;4.90;;;;;;;6.10;66.53;101139.09;683295;29;1113;-83
2023/03/29 01:08:10;;;;;;;5.85;5.10;;;;;;;6.03;66.35;101128.41;683254;29;859;-82
2023/03/29 01:08:38;;;;;;;5.65;4.88;;;;;;;6.08;66.38;101132.94;683228;29;1027;-82
2023/03/29 01:09:03;;;;;;;5.00;4.50;;;;;;;6.10;66.33;101141.69;680589;28;1122;-82
2023/03/29 01:09:29;;;;;;;5.28;4.60;;;;;;;6.08;66.56;101136.41;685900;28;1194;-82
2023/03/29 01:09:54;;;;;;;4.90;4.40;;;;;;;6.02;66.72;101129.22;685665;28;1128;-82
2023/03/29 01:10:21;;;;;;;4.97;4.50;;;;;;;5.98;66.81;101124.69;685831;28;1061;-83
2023/03/29 01:10:46;;;;;;;5.50;4.80;;;;;;;6.01;66.63;101130.03;688373;28;1189;-82
2023/03/29 01:11:14;;;;;;;6.53;5.15;;;;;;;6.02;66.51;101134.41;680482;28;1234;-83
2023/03/29 01:11:42;;;;;;;5.70;5.10;;;;;;;5.96;66.74;101123.69;680527;29;1010;-82
2023/03/29 01:12:15;;;;;;;5.68;5.15;;;;;;;6.07;67.07;101133.75;683293;29;1181;-82
2023/03/29 01:12:43;;;;;;;5.85;5.25;;;;;;;6.10;66.61;101145.19;680487;29;1332;-82
2023/03/29 01:13:11;;;;;;;8.40;5.05;;;;;;;6.06;67.13;101132.00;680530;29;963;-82
2023/03/29 01:14:06;;;;;;;8.52;5.13;;;;;;;6.19;66.88;101142.16;683270;29;958;-82
2023/03/29 01:14:39;;;;;;;5.00;4.50;;;;;;;6.13;67.19;101129.78;683145;29;1251;-83
2023/03/29 01:15:08;;;;;;;5.40;4.90;;;;;;;6.14;66.81;101126.38;685828;28;877;-82
2023/03/29 01:15:30;;;;;;;5.57;5.00;;;;;;;6.15;66.83;101132.47;688535;28;1078;-82
2023/03/29 01:15:53;;;;;;;6.05;5.10;;;;;;;6.21;67.09;101140.56;685815;28;1231;-82
2023/03/29 01:16:19;;;;;;;5.70;5.10;;;;;;;6.18;66.92;101131.72;680468;29;1078;-83
2023/03/29 01:16:40;;;;;;;5.45;4.95;;;;;;;6.20;67.29;101130.97;683041;29;1332;-82
2023/03/29 01:17:01;;;;;;;4.90;4.50;;;;;;;6.20;67.19;101130.97;687604;28;1257;-82
2023/03/29 01:17:24;;;;;;;5.22;4.75;;;;;;;6.23;67.47;101141.53;685595;28;1415;-82
2023/03/29 01:17:49;;;;;;;5.50;4.90;;;;;;;6.20;66.92;101128.38;682989;29;1299;-82
2023/03/29 01:18:10;;;;;;;6.07;5.45;;;;;;;6.21;66.71;101130.19;680564;29;1067;-82
2023/03/29 01:18:32;;;;;;;5.93;5.38;;;;;;;6.30;66.81;101137.53;683167;29;1201;-82
2023/03/29 01:18:53;;;;;;;5.78;5.18;;;;;;;6.25;66.85;101132.13;682991;29;1312;-82
2023/03/29 01:19:20;;;;;;;5.30;4.80;;;;;;;6.24;67.06;101127.75;683087;29;1130;-82
2023/03/29 01:20:41;;;;;;;5.22;4.75;;;;;;;6.39;66.86;101142.31;682465;29;1280;-82
2023/03/29 01:21:19;;;;;;;6.22;5.35;;;;;;;6.39;66.91;101129.34;680289;29;1371;-82
2023/03/29 01:21:43;;;;;;;6.35;4.93;;;;;;;6.42;67.06;101134.69;677778;29;1128;-83
2023/03/29 01:22:40;;;;;;;6.03;4.82;;;;;;;6.41;66.79;101122.53;680360;29;1289;-82
2023/03/29 01:23:06;;;;;;;5.55;5.03;;;;;;;6.57;66.38;101130.25;680512;29;844;-82
2023/03/29 01:24:07;;;;;;;5.80;5.10;;;;;;;6.58;66.52;101124.25;686389;28;1122;-82
2023/03/29 01:24:41;;;;;;;8.13;5.45;;;;;;;6.50;66.38;101112.63;685809;28;1163;-82
2023/03/29 01:25:11;;;;;;;6.18;5.28;;;;;;;6.53;66.35;101111.88;683014;29;1214;-83
2023/03/29 01:25:44;;;;;;;5.32;4.82;;;;;;;6.63;65.85;101123.63;682948;29;1399;-82
2023/03/29 01:26:26;;;;;;;5.20;4.70;;;;;;;6.63;66.01;101119.31;682986;29;1083;-82
2023/03/29 01:27:05;;;;;;;5.50;5.00;;;;;;;6.66;65.98;101110.78;680193;29;1180;-82
2023/03/29 01:28:01;;;;;;;6.97;4.90;;;;;;;6.61;65.93;101104.47;683205;29;986;-82
2023/03/29 01:28:28;;;;;;;5.60;4.88;;;;;;;6.63;65.69;101101.16;680258;29;1286;-82
2023/03/29 01:29:02;;;;;;;7.18;5.00;;;;;;;6.71;65.65;101119.72;680428;29;1149;-82
2023/03/29 01:29:29;;;;;;;7.82;4.97;;;;;;;6.72;65.81;101116.31;676822;29;1267;-82
2023/03/29 01:29:54;;;;;;;5.55;4.80;;;;;;;6.71;65.55;101104.16;672592;29;1538;-82
2023/03/29 01:30:37;;;;;;;5.35;4.85;;;;;;;6.65;65.61;101096.03;679260;29;1421;-82
2023/03/29 01:31:11;;;;;;;5.53;5.03;;;;;;;6.79;65.48;101109.72;685805;28;900;-82
2023/03/29 01:31:40;;;;;;;5.80;5.18;;;;;;;6.72;65.21;101095.56;683278;28;939;-82
2023/03/29 01:32:13;;;;;;;6.20;4.88;;;;;;;6.77;65.45;101114.84;680535;29;1276;-82
2023/03/29 01:32:43;;;;;;;7.00;4.80;;;;;;;6.75;65.23;101093.13;680446;29;1497;-82
2023/03/29 01:33:14;;;;;;;6.88;4.70;;;;;;;6.79;65.29;101102.84;683176;29;1200;-82
2023/03/29 01:33:46;;;;;;;5.28;4.60;;;;;;;6.83;65.10;101109.94;685842;28;1104;-82
2023/03/29 01:34:11;;;;;;;5.65;4.82;;;;;;;6.82;65.12;101108.16;685648;28;1547;-82
2023/03/29 01:34:51;;;;;;;5.55;4.88;;;;;;;6.88;64.94;101104.97;683297;29;859;-82
2023/03/29 01:35:21;;;;;;;5.38;4.88;;;;;;;6.77;64.96;101078.53;685859;28;1087;-82
2023/03/29 01:35:50;;;;;;;5.85;5.25;;;;;;;6.82;65.03;101090.00;685747;28;1296;-83
2023/03/29 01:36:20;;;;;;;5.95;5.30;;;;;;;6.90;64.94;101097.28;685790;28;1352;-82
2023/03/29 01:36:59;;;;;;;6.97;5.28;;;;;;;6.80;64.65;101091.66;685642;28;1340;-82
2023/03/29 01:37:35;;;;;;;5.30;4.57;;;;;;;6.88;64.58;101107.56;683058;29;1127;-82
2023/03/29 01:38:06;;;;;;;5.45;4.68;;;;;;;6.79;64.71;101084.69;685797;28;1092;-82
2023/03/29 01:38:36;;;;;;;5.32;4.80;;;;;;;6.80;64.64;101083.84;683145;28;1231;-82
2023/03/29 01:39:05;;;;;;;6.32;4.95;;;;;;;6.88;64.63;101091.13;685824;28;1198;-82
2023/03/29 01:39:26;;;;;;;5.80;4.82;;;;;;;6.81;64.61;101075.25;685892;28;1157;-82
2023/03/29 01:39:47;;;;;;;5.67;5.07;;;;;;;6.97;64.71;101096.75;682930;29;1264;-83
2023/03/29 01:40:08;;;;;;;5.85;5.25;;;;;;;6.89;64.41;101083.44;685824;28;1208;-82
2023/03/29 01:40:31;;;;;;;5.82;5.22;;;;;;;6.91;64.54;101083.47;688514;28;1215;-82
2023/03/29 01:40:52;;;;;;;5.70;4.78;;;;;;;6.99;64.39;101095.13;685820;28;1097;-83
2023/03/29 01:41:12;;;;;;;5.22;4.50;;;;;;;6.92;64.21;101085.25;685668;28;1082;-82
2023/03/29 01:41:55;;;;;;;6.05;4.68;;;;;;;6.90;64.50;101084.31;688512;28;1413;-82
2023/03/29 01:42:30;;;;;;;5.07;4.57;;;;;;;7.02;64.53;101096.97;690935;28;1341;-82
2023/03/29 01:43:03;;;;;;;5.40;4.90;;;;;;;7.01;64.65;101088.31;685720;28;1465;-82
2023/03/29 01:43:30;;;;;;;5.70;4.93;;;;;;;7.05;64.19;101094.53;683100;29;1041;-82
2023/03/29 01:44:12;;;;;;;5.45;4.50;;;;;;;6.94;64.41;101071.53;683065;29;1120;-82
2023/03/29 01:44:44;;;;;;;4.90;4.13;;;;;;;7.03;64.28;101084.09;683292;28;843;-82
2023/03/29 01:45:18;;;;;;;6.63;4.30;;;;;;;7.01;63.73;101077.94;685891;28;1115;-82
2023/03/29 01:45:46;;;;;;;6.38;4.40;;;;;;;7.04;64.12;101072.88;690968;28;1095;-82
2023/03/29 01:46:13;;;;;;;6.07;4.63;;;;;;;6.94;63.82;101055.97;691294;28;1072;-82
2023/03/29 01:46:46;;;;;;;6.70;4.70;;;;;;;7.02;63.51;101063.25;685685;28;1289;-82
2023/03/29 01:47:16;;;;;;;6.13;4.60;;;;;;;7.07;63.61;101077.34;688440;28;1099;-83
2023/03/29 01:47:49;;;;;;;4.70;4.20;;;;;;;6.98;63.35;101063.09;685726;28;1291;-82
2023/03/29 01:48:21;;;;;;;5.25;4.22;;;;;;;7.07;63.54;101078.19;688520;28;1127;-82
2023/03/29 01:48:55;;;;;;;6.45;4.47;;;;;;;7.10;63.64;101080.97;688262;28;1064;-82
2023/03/29 01:49:41;;;;;;;5.13;4.25;;;;;;;7.04;63.98;101062.50;688354;28;1136;-82
2023/03/29 01:50:16;;;;;;;4.75;4.25;;;;;;;7.09;63.34;101074.00;683036;29;1073;-82
2023/03/29 01:50:40;;;;;;;4.80;4.10;;;;;;;7.02;63.11;101058.94;684910;28;1101;-82
2023/03/29 01:51:06;;;;;;;4.40;4.00;;;;;;;7.12;63.44;101068.94;683102;29;1225;-82
2023/03/29 01:51:43;;;;;;;4.80;4.30;;;;;;;6.97;63.42;101050.94;680535;29;999;-82
2023/03/29 01:52:15;;;;;;;5.70;4.70;;;;;;;6.97;63.18;101050.94;677894;29;1279;-82
2023/03/29 01:52:46;;;;;;;5.30;4.55;;;;;;;7.05;63.25;101064.28;683117;29;1254;-82
2023/03/29 01:53:28;;;;;;;7.32;4.70;;;;;;;7.10;63.42;101077.47;683154;28;1132;-82
2023/03/29 01:53:56;;;;;;;6.88;4.63;;;;;;;7.01;63.25;101058.88;685191;28;1141;-83
2023/03/29 01:54:34;;;;;;;5.68;4.70;;;;;;;7.05;63.55;101068.59;685585;28;1120;-82
2023/03/29 01:55:07;;;;;;;5.72;4.90;;;;;;;6.97;63.07;101056.13;685639;28;1212;-83
2023/03/29 01:55:34;;;;;;;4.93;4.43;;;;;;;7.01;63.08;101057.19;685789;28;1342;-82
2023/03/29 01:56:06;;;;;;;4.85;4.30;;;;;;;7.00;63.58;101060.56;683107;28;1442;-82
2023/03/29 01:56:29;;;;;;;5.28;4.20;;;;;;;7.02;63.35;101064.16;685952;28;1315;-82
2023/03/29 01:56:52;;;;;;;6.10;4.30;;;;;;;6.99;63.21;101059.69;685602;28;1074;-82
2023/03/29 01:57:13;;;;;;;6.05;4.38;;;;;;;7.05;63.34;101063.41;685672;28;1264;-82
2023/03/29 01:57:38;;;;;;;5.65;4.80;;;;;;;6.99;62.93;101058.78;683211;28;1140;-82
2023/03/29 01:58:02;;;;;;;5.40;4.57;;;;;;;7.07;63.41;101069.53;683181;29;915;-82
2023/03/29 01:58:27;;;;;;;5.30;4.15;;;;;;;7.10;63.22;101077.47;691450;28;1069;-82
2023/03/29 01:58:52;;;;;;;5.97;4.10;;;;;;;7.04;63.10;101059.91;680414;28;2008;-82
2023/03/29 01:59:19;;;;;;;5.50;4.30;;;;;;;7.12;63.08;101065.44;683002;29;1058;-82
2023/03/29 01:59:43;;;;;;;5.28;4.70;;;;;;;7.01;63.47;101056.28;683164;28;1449;-81
2023/03/29 02:00:08;;;;;;;5.10;4.60;;;;;;;7.06;62.78;101057.38;685825;28;1102;-82
2023/03/29 02:00:35;;;;;;;5.00;4.25;;;;;;;7.07;63.37;101062.63;683238;29;1498;-81
2023/03/29 02:00:58;;;;;;;5.20;4.32;;;;;;;7.00;63.16;101042.41;688383;28;1224;-81
2023/03/29 02:01:24;;;;;;;5.75;4.50;;;;;;;7.05;63.26;101053.88;685843;28;962;-82
2023/03/29 02:01:50;;;;;;;7.30;4.40;;;;;;;7.05;62.92;101053.88;683041;28;2025;-81
2023/03/29 02:02:17;;;;;;;6.40;4.20;;;;;;;7.01;62.79;101046.81;683147;29;1093;-81
2023/03/29 02:02:43;;;;;;;5.38;4.10;;;;;;;7.10;63.07;101062.78;680537;29;1162;-82
2023/03/29 02:03:08;;;;;;;4.82;4.00;;;;;;;7.08;62.30;101048.88;680030;29;1260;-81
2023/03/29 02:03:29;;;;;;;4.97;4.00;;;;;;;7.05;62.91;101051.28;677947;29;1272;-82
2023/03/29 02:03:55;;;;;;;5.75;4.10;;;;;;;7.08;62.62;101046.28;677739;29;1116;-81
2023/03/29 02:04:21;;;;;;;5.70;4.32;;;;;;;7.13;62.87;101056.88;683108;29;1175;-81
2023/03/29 02:04:48;;;;;;;5.50;4.60;;;;;;;7.09;62.71;101048.03;682921;29;1899;-83
2023/03/29 02:05:13;;;;;;;6.15;4.60;;;;;;;7.04;62.87;101039.16;685754;28;1240;-82
2023/03/29 02:05:35;;;;;;;6.38;4.45;;;;;;;7.07;62.74;101047.06;688452;28;1363;-82
2023/03/29 02:05:57;;;;;;;5.65;4.53;;;;;;;7.12;62.79;101053.38;688409;28;1073;-82